createdAt,value
2018-07-28T00:01:24.397Z,47.47
2018-07-28T00:03:52.118Z,47.75
2018-07-28T00:06:19.801Z,46.94
2018-07-28T00:08:47.474Z,47.80
2018-07-28T00:11:15.182Z,47.93
2018-07-28T00:13:43.066Z,47.42
2018-07-28T00:16:10.725Z,47.19
2018-07-28T00:18:38.439Z,46.95
2018-07-28T00:21:06.121Z,47.73
2018-07-28T00:23:33.794Z,47.25
2018-07-28T00:26:07.195Z,47.19
2018-07-28T00:28:34.990Z,46.47
2018-07-28T00:31:02.689Z,46.82
2018-07-28T00:33:30.420Z,47.46
2018-07-28T00:35:58.049Z,46.78
2018-07-28T00:38:25.770Z,46.93
2018-07-28T00:40:53.510Z,47.12
2018-07-28T00:43:21.198Z,47.55
2018-07-28T00:45:48.849Z,47.20
2018-07-28T00:48:16.494Z,47.65
2018-07-28T00:50:44.180Z,47.89
2018-07-28T00:53:11.890Z,48.57
2018-07-28T00:55:39.634Z,48.22
2018-07-28T00:58:07.593Z,48.17
2018-07-28T01:00:35.341Z,47.96
2018-07-28T01:03:03.169Z,47.51
2018-07-28T01:05:31.022Z,48.55
2018-07-28T01:07:58.698Z,47.28
2018-07-28T01:10:36.029Z,48.04
2018-07-28T01:13:03.717Z,47.50
2018-07-28T01:15:31.382Z,47.63
2018-07-28T01:17:59.246Z,47.92
2018-07-28T01:20:26.951Z,48.00
2018-07-28T01:22:54.609Z,48.55
2018-07-28T01:25:22.370Z,48.61
2018-07-28T01:27:50.038Z,49.17
2018-07-28T01:30:22.674Z,48.66
2018-07-28T01:32:50.316Z,49.28
2018-07-28T01:35:17.997Z,49.71
2018-07-28T01:37:45.901Z,50.29
2018-07-28T01:40:13.587Z,49.82
2018-07-28T01:42:41.270Z,49.71
2018-07-28T01:45:09.254Z,50.48
2018-07-28T01:47:36.964Z,49.84
2018-07-28T01:50:06.523Z,50.19
2018-07-28T01:52:34.333Z,50.06
2018-07-28T01:55:02.049Z,50.12
2018-07-28T01:57:29.820Z,49.23
2018-07-28T01:59:57.444Z,49.21
2018-07-28T02:02:25.120Z,48.84
2018-07-28T02:04:52.689Z,49.05
2018-07-28T02:07:20.289Z,49.62
2018-07-28T02:09:47.907Z,49.83
2018-07-28T02:15:13.209Z,50.93
2018-07-28T02:17:40.858Z,50.59
2018-07-28T02:20:08.684Z,52.26
2018-07-28T02:22:36.388Z,52.30
2018-07-28T02:25:06.982Z,52.01
2018-07-28T02:27:34.585Z,53.73
2018-07-28T02:30:02.229Z,53.79
2018-07-28T02:32:29.892Z,52.60
2018-07-28T02:34:57.604Z,52.73
2018-07-28T02:37:25.224Z,52.61
2018-07-28T02:39:52.838Z,52.67
2018-07-28T02:42:20.508Z,53.36
2018-07-28T02:44:48.139Z,52.82
2018-07-28T02:47:15.790Z,52.92
2018-07-28T02:49:43.479Z,52.80
2018-07-28T02:52:11.090Z,52.07
2018-07-28T02:54:38.797Z,52.91
2018-07-28T02:57:06.443Z,52.48
2018-07-28T02:59:34.073Z,52.92
2018-07-28T03:02:01.821Z,52.36
2018-07-28T03:04:29.493Z,51.65
2018-07-28T03:06:57.114Z,51.94
2018-07-28T03:09:24.737Z,52.19
2018-07-28T03:11:52.378Z,51.81
2018-07-28T03:14:20.112Z,51.70
2018-07-28T03:16:47.693Z,52.37
2018-07-28T03:19:15.405Z,52.44
2018-07-28T03:21:42.999Z,51.77
2018-07-28T03:24:10.623Z,52.50
2018-07-28T03:26:38.205Z,52.09
2018-07-28T03:29:05.904Z,52.17
2018-07-28T03:31:33.609Z,52.76
2018-07-28T03:34:01.241Z,52.03
2018-07-28T03:36:28.905Z,52.37
2018-07-28T03:38:56.567Z,53.04
2018-07-28T03:41:24.240Z,50.97
2018-07-28T03:43:51.825Z,51.41
2018-07-28T03:46:19.615Z,51.47
2018-07-28T03:48:47.277Z,51.63
2018-07-28T03:51:14.913Z,51.48
2018-07-28T03:53:42.564Z,51.00
2018-07-28T03:56:10.285Z,51.49
2018-07-28T03:58:37.877Z,51.53
2018-07-28T04:01:05.662Z,51.99
2018-07-28T04:03:33.425Z,51.40
2018-07-28T04:06:01.193Z,52.58
2018-07-28T04:08:28.804Z,52.53
2018-07-28T04:10:56.640Z,51.47
2018-07-28T04:13:24.660Z,51.53
2018-07-28T04:15:52.252Z,53.04
2018-07-28T04:18:19.886Z,52.82
2018-07-28T04:20:47.652Z,54.10
2018-07-28T04:23:15.308Z,55.37
2018-07-28T04:25:42.976Z,54.51
2018-07-28T04:28:10.561Z,54.45
2018-07-28T04:30:38.381Z,55.92
2018-07-28T04:33:05.989Z,54.53
2018-07-28T04:35:33.573Z,55.09
2018-07-28T04:38:01.177Z,56.72
2018-07-28T04:40:28.815Z,56.47
2018-07-28T04:42:56.412Z,55.93
2018-07-28T04:45:24.008Z,56.38
2018-07-28T04:47:51.590Z,55.15
2018-07-28T04:50:19.185Z,54.66
2018-07-28T04:52:46.772Z,53.24
2018-07-28T04:55:14.378Z,52.29
2018-07-28T04:57:41.965Z,52.56
2018-07-28T05:00:09.613Z,52.47
2018-07-28T05:02:37.190Z,52.94
2018-07-28T05:05:04.822Z,52.34
2018-07-28T05:07:32.484Z,52.93
2018-07-28T05:10:00.043Z,53.45
2018-07-28T05:12:27.689Z,52.88
2018-07-28T05:14:55.439Z,52.47
2018-07-28T05:17:23.100Z,53.23
2018-07-28T05:19:50.717Z,52.70
2018-07-28T05:22:18.433Z,52.27
2018-07-28T05:24:46.141Z,53.46
2018-07-28T05:27:13.856Z,54.46
2018-07-28T05:29:41.605Z,53.95
2018-07-28T05:32:09.113Z,58.55
2018-07-28T05:34:36.741Z,57.88
2018-07-28T05:37:04.639Z,58.47
2018-07-28T05:39:32.202Z,59.72
2018-07-28T05:41:59.822Z,59.08
2018-07-28T05:44:27.421Z,59.66
2018-07-28T05:46:55.046Z,59.32
2018-07-28T05:49:22.745Z,59.61
2018-07-28T05:51:50.368Z,59.15
2018-07-28T05:54:18.098Z,60.05
2018-07-28T05:56:45.685Z,60.98
2018-07-28T05:59:13.378Z,59.52
2018-07-28T06:01:40.982Z,60.12
2018-07-28T06:04:08.640Z,60.61
2018-07-28T06:06:36.378Z,59.96
2018-07-28T06:09:06.782Z,58.59
2018-07-28T06:11:34.722Z,60.96
2018-07-28T06:14:02.588Z,60.51
2018-07-28T06:16:30.158Z,59.81
2018-07-28T06:18:57.845Z,60.06
2018-07-28T06:21:25.508Z,60.01
2018-07-28T06:23:53.109Z,59.85
2018-07-28T06:26:20.731Z,61.43
2018-07-28T06:28:48.409Z,61.49
2018-07-28T06:31:16.051Z,61.48
2018-07-28T06:33:43.701Z,61.98
2018-07-28T06:36:11.308Z,61.31
2018-07-28T06:38:39.020Z,60.81
2018-07-28T06:41:06.738Z,60.50
2018-07-28T06:43:34.357Z,61.54
2018-07-28T06:46:02.119Z,61.46
2018-07-28T06:48:29.701Z,61.10
2018-07-28T06:50:57.388Z,60.28
2018-07-28T06:53:25.026Z,59.74
2018-07-28T06:55:52.664Z,59.49
2018-07-28T06:58:20.576Z,59.35
2018-07-28T07:03:22.600Z,58.19
2018-07-28T07:05:50.297Z,57.03
2018-07-28T07:08:17.889Z,56.75
2018-07-28T07:10:45.568Z,56.12
2018-07-28T07:13:13.376Z,56.39
2018-07-28T07:15:41.189Z,55.84
2018-07-28T07:18:08.809Z,55.38
2018-07-28T07:20:36.474Z,55.25
2018-07-28T07:23:04.165Z,53.12
2018-07-28T07:25:31.786Z,52.75
2018-07-28T07:27:59.451Z,52.62
2018-07-28T07:30:27.116Z,52.70
2018-07-28T07:32:54.822Z,52.44
2018-07-28T07:35:22.729Z,51.71
2018-07-28T07:37:50.569Z,51.99
2018-07-28T07:40:18.170Z,49.28
2018-07-28T07:42:45.845Z,49.28
2018-07-28T07:45:13.445Z,50.79
2018-07-28T07:47:41.142Z,51.33
2018-07-28T07:50:08.665Z,50.17
2018-07-28T07:52:36.277Z,51.79
2018-07-28T07:55:04.009Z,50.11
2018-07-28T07:57:31.709Z,49.83
2018-07-28T07:59:59.304Z,50.19
2018-07-28T08:02:26.990Z,50.85
2018-07-28T08:04:54.723Z,49.52
2018-07-28T08:07:22.328Z,50.07
2018-07-28T08:09:50.093Z,49.82
2018-07-28T08:12:17.740Z,48.99
2018-07-28T08:14:45.349Z,49.67
2018-07-28T08:17:13.022Z,51.25
2018-07-28T08:19:40.657Z,50.99
2018-07-28T08:22:08.342Z,49.95
2018-07-28T08:24:35.985Z,48.32
2018-07-28T08:27:03.694Z,48.13
2018-07-28T08:29:31.336Z,46.89
2018-07-28T08:31:58.977Z,46.43
2018-07-28T08:34:26.640Z,46.15
2018-07-28T08:36:54.246Z,47.47
2018-07-28T08:39:21.961Z,46.08
2018-07-28T08:41:49.611Z,45.49
2018-07-28T08:44:17.198Z,45.72
2018-07-28T08:46:44.966Z,44.28
2018-07-28T08:49:12.677Z,43.74
2018-07-28T08:51:40.566Z,43.75
2018-07-28T08:54:08.281Z,42.92
2018-07-28T08:56:35.945Z,42.97
2018-07-28T08:59:03.682Z,43.22
2018-07-28T09:01:31.369Z,42.43
2018-07-28T09:03:58.965Z,42.82
2018-07-28T09:06:26.805Z,40.86
2018-07-28T09:08:54.429Z,40.29
2018-07-28T09:11:22.381Z,39.48
2018-07-28T09:13:50.125Z,39.67
2018-07-28T09:16:17.725Z,39.71
2018-07-28T09:18:45.406Z,38.83
2018-07-28T09:21:13.650Z,38.10
2018-07-28T09:23:41.342Z,40.02
2018-07-28T09:26:08.924Z,40.28
2018-07-28T09:28:36.517Z,40.00
2018-07-28T09:31:04.354Z,39.54
2018-07-28T09:33:31.972Z,39.87
2018-07-28T09:35:59.805Z,39.98
2018-07-28T09:38:27.546Z,39.49
2018-07-28T09:40:55.248Z,39.11
2018-07-28T09:43:23.096Z,38.15
2018-07-28T09:45:50.707Z,38.70
2018-07-28T09:48:18.322Z,38.33
2018-07-28T09:50:45.982Z,38.98
2018-07-28T09:53:13.624Z,39.96
2018-07-28T09:55:41.303Z,39.45
2018-07-28T09:58:08.897Z,39.48
2018-07-28T10:00:42.181Z,39.12
2018-07-28T10:03:09.889Z,40.14
2018-07-28T10:05:37.669Z,39.76
2018-07-28T10:08:05.370Z,40.21
2018-07-28T10:10:36.940Z,41.01
2018-07-28T10:13:04.645Z,40.60
2018-07-28T10:15:32.249Z,40.58
2018-07-28T10:17:59.930Z,40.37
2018-07-28T10:20:27.541Z,39.34
2018-07-28T10:22:55.228Z,38.70
2018-07-28T10:25:22.746Z,39.40
2018-07-28T10:27:50.395Z,38.40
2018-07-28T10:30:18.082Z,39.31
2018-07-28T10:32:45.593Z,39.47
2018-07-28T10:35:13.319Z,39.59
2018-07-28T10:37:40.917Z,39.82
2018-07-28T10:40:09.274Z,39.95
2018-07-28T10:42:37.293Z,38.79
2018-07-28T10:45:05.089Z,38.73
2018-07-28T10:47:32.718Z,38.48
2018-07-28T10:50:00.383Z,38.36
2018-07-28T10:52:28.085Z,39.00
2018-07-28T10:54:55.710Z,38.86
2018-07-28T10:57:24.244Z,39.25
2018-07-28T10:59:52.578Z,39.35
2018-07-28T11:02:20.597Z,39.45
2018-07-28T11:04:48.233Z,39.80
2018-07-28T11:07:16.009Z,39.10
2018-07-28T11:09:44.013Z,39.39
2018-07-28T11:12:11.673Z,40.11
2018-07-28T11:14:39.414Z,39.08
2018-07-28T11:17:07.053Z,39.98
2018-07-28T11:19:34.948Z,39.11
2018-07-28T11:22:02.589Z,39.61
2018-07-28T11:24:30.198Z,39.19
2018-07-28T11:26:57.865Z,39.24
2018-07-28T11:29:25.817Z,38.73
2018-07-28T11:32:11.136Z,38.89
2018-07-28T11:34:56.177Z,38.49
2018-07-28T11:38:01.117Z,38.64
2018-07-28T11:40:41.336Z,37.90
2018-07-28T11:43:26.237Z,38.17
2018-07-28T11:45:54.159Z,38.87
2018-07-28T11:48:21.729Z,38.81
2018-07-28T11:50:49.442Z,38.79
2018-07-28T11:53:17.054Z,38.68
2018-07-28T11:55:44.717Z,39.23
2018-07-28T11:58:12.317Z,38.74
2018-07-28T12:00:39.922Z,38.23
2018-07-28T12:03:07.595Z,38.37
2018-07-28T12:05:35.262Z,39.72
2018-07-28T12:08:02.998Z,39.49
2018-07-28T12:10:36.890Z,40.14
2018-07-28T12:13:04.641Z,40.09
2018-07-28T12:15:32.337Z,39.61
2018-07-28T12:18:00.017Z,39.50
2018-07-28T12:20:27.652Z,40.53
2018-07-28T12:22:55.302Z,41.20
2018-07-28T12:25:22.938Z,40.62
2018-07-28T12:27:50.649Z,41.55
2018-07-28T12:30:18.290Z,41.03
2018-07-28T12:32:45.905Z,39.42
2018-07-28T12:35:13.565Z,40.62
2018-07-28T12:37:41.298Z,39.97
2018-07-28T12:40:08.982Z,39.75
2018-07-28T12:42:36.672Z,40.69
2018-07-28T12:45:04.753Z,39.96
2018-07-28T12:47:32.377Z,39.96
2018-07-28T12:50:00.057Z,39.41
2018-07-28T12:52:27.689Z,39.03
2018-07-28T12:54:57.706Z,39.43
2018-07-28T12:57:25.553Z,39.55
2018-07-28T12:59:55.993Z,38.79
2018-07-28T13:02:23.619Z,39.42
2018-07-28T13:04:51.339Z,39.31
2018-07-28T13:07:18.965Z,38.88
2018-07-28T13:09:46.607Z,39.68
2018-07-28T13:12:14.463Z,40.42
2018-07-28T13:14:42.139Z,40.13
2018-07-28T13:17:09.777Z,40.65
2018-07-28T13:19:37.434Z,40.16
2018-07-28T13:22:05.293Z,41.20
2018-07-28T13:24:33.003Z,41.39
2018-07-28T13:27:00.624Z,41.51
2018-07-28T13:29:28.248Z,42.05
2018-07-28T13:31:55.893Z,41.80
2018-07-28T13:34:23.618Z,42.70
2018-07-28T13:36:51.274Z,43.21
2018-07-28T13:39:19.173Z,44.22
2018-07-28T13:41:46.889Z,46.31
2018-07-28T13:44:14.494Z,47.08
2018-07-28T13:46:42.113Z,48.27
2018-07-28T13:49:09.721Z,48.62
2018-07-28T13:51:37.329Z,47.54
2018-07-28T13:54:04.993Z,49.40
2018-07-28T13:56:32.638Z,49.27
2018-07-28T13:59:00.272Z,49.31
2018-07-28T14:01:27.873Z,51.11
2018-07-28T14:03:55.498Z,52.19
2018-07-28T14:06:23.165Z,54.36
2018-07-28T14:08:50.770Z,54.26
2018-07-28T14:11:18.533Z,51.24
2018-07-28T14:13:48.805Z,52.35
2018-07-28T14:16:16.522Z,51.12
2018-07-28T14:18:44.241Z,51.01
2018-07-28T14:21:11.843Z,49.80
2018-07-28T14:23:39.495Z,49.09
2018-07-28T14:26:07.149Z,47.29
2018-07-28T14:28:34.883Z,47.31
2018-07-28T14:31:02.550Z,46.30
2018-07-28T14:33:30.213Z,46.67
2018-07-28T14:35:57.853Z,47.36
2018-07-28T14:38:25.477Z,47.51
2018-07-28T14:40:53.221Z,47.87
2018-07-28T14:43:20.873Z,48.07
2018-07-28T14:45:48.514Z,47.28
2018-07-28T14:48:16.141Z,47.00
2018-07-28T14:50:43.760Z,47.45
2018-07-28T14:53:11.384Z,48.41
2018-07-28T14:55:39.117Z,47.97
2018-07-28T14:58:06.754Z,49.34
2018-07-28T15:00:34.378Z,48.27
2018-07-28T15:03:02.007Z,49.22
2018-07-28T15:05:29.639Z,48.52
2018-07-28T15:07:57.270Z,49.05
2018-07-28T15:10:36.245Z,49.59
2018-07-28T15:13:03.885Z,48.28
2018-07-28T15:15:31.501Z,48.97
2018-07-28T15:17:59.218Z,48.28
2018-07-28T15:20:26.834Z,48.46
2018-07-28T15:22:54.477Z,48.10
2018-07-28T15:25:22.121Z,47.05
2018-07-28T15:27:49.746Z,46.40
2018-07-28T15:30:17.425Z,45.95
2018-07-28T15:32:45.049Z,45.03
2018-07-28T15:35:12.673Z,46.01
2018-07-28T15:37:40.293Z,45.51
2018-07-28T15:40:07.961Z,44.93
2018-07-28T15:42:35.598Z,44.83
2018-07-28T15:45:03.474Z,45.00
2018-07-28T15:47:31.102Z,45.09
2018-07-28T15:49:58.709Z,43.63
2018-07-28T15:52:26.333Z,44.31
2018-07-28T15:54:53.947Z,45.16
2018-07-28T15:57:21.624Z,42.78
2018-07-28T15:59:49.249Z,44.15
2018-07-28T16:02:16.859Z,43.59
2018-07-28T16:04:44.478Z,43.01
2018-07-28T16:07:12.105Z,43.97
2018-07-28T16:09:39.854Z,43.79
2018-07-28T16:12:07.517Z,43.97
2018-07-28T16:14:35.137Z,44.50
2018-07-28T16:17:02.769Z,44.61
2018-07-28T16:19:30.400Z,43.85
2018-07-28T16:21:58.009Z,43.87
2018-07-28T16:24:25.633Z,44.01
2018-07-28T16:26:53.270Z,44.31
2018-07-28T16:29:20.901Z,44.22
2018-07-28T16:31:48.587Z,43.40
2018-07-28T16:34:16.188Z,43.33
2018-07-28T16:36:43.821Z,43.93
2018-07-28T16:39:11.505Z,43.01
2018-07-28T16:41:39.159Z,43.20
2018-07-28T16:44:06.900Z,42.42
2018-07-28T16:46:34.555Z,42.76
2018-07-28T16:49:02.127Z,43.39
2018-07-28T16:51:29.733Z,41.99
2018-07-28T16:53:57.361Z,42.73
2018-07-28T16:56:25.002Z,42.66
2018-07-28T16:58:52.675Z,42.16
2018-07-28T17:01:20.247Z,42.72
2018-07-28T17:03:47.936Z,43.21
2018-07-28T17:06:15.581Z,43.62
2018-07-28T17:08:43.173Z,42.54
2018-07-28T17:11:11.102Z,43.97
2018-07-28T17:13:38.787Z,43.06
2018-07-28T17:16:06.417Z,43.22
2018-07-28T17:18:34.037Z,43.58
2018-07-28T17:21:01.626Z,44.14
2018-07-28T17:23:29.233Z,44.05
2018-07-28T17:25:56.894Z,43.90
2018-07-28T17:28:24.505Z,43.94
2018-07-28T17:30:52.152Z,43.48
2018-07-28T17:33:19.741Z,44.43
2018-07-28T17:35:47.345Z,43.46
2018-07-28T17:38:14.983Z,44.48
2018-07-28T17:40:42.599Z,44.07
2018-07-28T17:43:10.245Z,44.45
2018-07-28T17:45:37.897Z,44.00
2018-07-28T17:48:05.528Z,44.28
2018-07-28T17:50:33.433Z,44.16
2018-07-28T17:53:01.046Z,44.29
2018-07-28T17:55:28.731Z,45.02
2018-07-28T17:57:56.439Z,45.15
2018-07-28T18:00:24.118Z,45.40
2018-07-28T18:02:52.059Z,44.80
2018-07-28T18:05:19.762Z,45.31
2018-07-28T18:07:47.766Z,45.28
2018-07-28T18:10:15.686Z,45.02
2018-07-28T18:12:43.362Z,46.14
2018-07-28T18:15:11.060Z,45.77
2018-07-28T18:17:38.694Z,46.38
2018-07-28T18:20:06.570Z,46.00
2018-07-28T18:22:34.199Z,45.94
2018-07-28T18:25:01.966Z,46.48
2018-07-28T18:27:29.715Z,46.70
2018-07-28T18:29:57.367Z,47.43
2018-07-28T18:32:25.042Z,46.49
2018-07-28T18:34:52.934Z,47.21
2018-07-28T18:37:20.978Z,46.88
2018-07-28T18:39:48.798Z,46.84
2018-07-28T18:42:16.450Z,47.46
2018-07-28T18:44:44.184Z,47.56
2018-07-28T18:47:12.107Z,47.60
2018-07-28T18:49:39.807Z,47.86
2018-07-28T18:52:07.978Z,47.48
2018-07-28T18:54:35.660Z,47.43
2018-07-28T18:57:03.694Z,47.10
2018-07-28T18:59:31.368Z,47.86
2018-07-28T19:01:59.038Z,47.51
2018-07-28T19:04:26.818Z,47.50
2018-07-28T19:06:54.490Z,47.90
2018-07-28T19:09:27.907Z,48.12
2018-07-28T19:11:55.669Z,48.35
2018-07-28T19:14:29.039Z,49.46
2018-07-28T19:16:57.150Z,49.67
2018-07-28T19:19:24.932Z,49.92
2018-07-28T19:21:52.590Z,49.49
2018-07-28T19:24:20.327Z,49.35
2018-07-28T19:26:47.974Z,50.25
2018-07-28T19:29:21.438Z,50.20
2018-07-28T19:31:49.223Z,50.38
2018-07-28T19:34:23.518Z,48.85
2018-07-28T19:36:56.834Z,50.98
2018-07-28T19:39:24.523Z,54.54
2018-07-28T19:41:57.890Z,56.45
2018-07-28T19:44:25.711Z,57.19
2018-07-28T19:46:53.231Z,56.79
2018-07-28T19:49:20.871Z,57.19
2018-07-28T19:51:48.631Z,58.11
2018-07-28T19:54:16.343Z,57.75
2018-07-28T19:56:43.958Z,58.10
2018-07-28T19:59:11.670Z,58.52
2018-07-28T20:01:39.363Z,57.99
2018-07-28T20:04:06.998Z,58.44
2018-07-28T20:06:34.696Z,57.30
2018-07-28T20:09:02.526Z,57.59
2018-07-28T20:11:30.278Z,57.08
2018-07-28T20:13:58.014Z,58.36
2018-07-28T20:16:25.734Z,61.19
2018-07-28T20:18:53.783Z,60.23
2018-07-28T20:21:21.606Z,60.56
2018-07-28T20:23:49.977Z,62.61
2018-07-28T20:26:17.628Z,61.44
2018-07-28T20:28:45.331Z,63.01
2018-07-28T20:31:13.104Z,61.99
2018-07-28T20:33:40.842Z,63.04
2018-07-28T20:36:08.540Z,62.58
2018-07-28T20:38:36.250Z,62.42
2018-07-28T20:41:03.958Z,63.73
2018-07-28T20:43:31.678Z,62.61
2018-07-28T20:45:59.341Z,63.33
2018-07-28T20:48:27.067Z,63.50
2018-07-28T20:50:54.863Z,63.16
2018-07-28T20:53:22.677Z,62.56
2018-07-28T20:55:50.434Z,62.18
2018-07-28T20:58:18.938Z,61.94
2018-07-28T21:00:46.686Z,61.23
2018-07-28T21:03:14.459Z,61.95
2018-07-28T21:05:42.166Z,62.00
2018-07-28T21:08:09.930Z,61.94
2018-07-28T21:10:37.723Z,61.93
2018-07-28T21:13:05.784Z,61.70
2018-07-28T21:15:33.751Z,62.42
2018-07-28T21:18:01.460Z,62.60
2018-07-28T21:20:29.235Z,62.17
2018-07-28T21:22:56.866Z,61.58
2018-07-28T21:25:24.547Z,61.86
2018-07-28T21:27:52.728Z,60.99
2018-07-28T21:30:20.474Z,61.32
2018-07-28T21:32:48.387Z,61.12
2018-07-28T21:35:16.167Z,61.11
2018-07-28T21:37:43.831Z,61.59
2018-07-28T21:40:11.578Z,61.20
2018-07-28T21:42:39.460Z,60.70
2018-07-28T21:45:07.240Z,60.90
2018-07-28T21:47:34.915Z,61.38
2018-07-28T21:50:02.714Z,61.33
2018-07-28T21:52:30.485Z,60.28
2018-07-28T21:54:58.134Z,61.29
2018-07-28T21:57:25.903Z,60.20
2018-07-28T21:59:53.601Z,58.91
2018-07-28T22:02:21.346Z,60.38
2018-07-28T22:04:49.289Z,58.39
2018-07-28T22:07:16.961Z,60.35
2018-07-28T22:09:44.611Z,60.04
2018-07-28T22:12:12.371Z,60.03
2018-07-28T22:14:40.060Z,58.98
2018-07-28T22:17:07.844Z,60.50
2018-07-28T22:19:35.502Z,59.93
2018-07-28T22:22:03.390Z,60.70
2018-07-28T22:24:31.044Z,59.21
2018-07-28T22:26:58.793Z,60.33
2018-07-28T22:29:26.647Z,58.65
2018-07-28T22:31:54.431Z,59.17
2018-07-28T22:34:22.154Z,59.67
2018-07-28T22:36:49.908Z,60.34
2018-07-28T22:39:17.536Z,59.81
2018-07-28T22:41:45.276Z,60.12
2018-07-28T22:44:13.014Z,59.75
2018-07-28T22:46:40.793Z,58.91
2018-07-28T22:49:08.555Z,59.90
2018-07-28T22:51:36.215Z,60.25
2018-07-28T22:54:04.198Z,59.37
2018-07-28T22:56:31.946Z,59.85
2018-07-28T22:58:59.595Z,59.48
2018-07-28T23:01:27.250Z,60.75
2018-07-28T23:03:54.910Z,61.11
2018-07-28T23:06:22.542Z,60.45
2018-07-28T23:08:50.187Z,60.61
2018-07-28T23:11:17.848Z,60.55
2018-07-28T23:13:45.478Z,60.60
2018-07-28T23:16:13.147Z,59.97
2018-07-28T23:18:40.782Z,59.74
2018-07-28T23:21:08.435Z,60.84
2018-07-28T23:23:36.084Z,61.80
2018-07-28T23:26:03.860Z,62.91
2018-07-28T23:28:31.530Z,62.53
2018-07-28T23:30:59.186Z,62.22
2018-07-28T23:33:26.825Z,63.27
2018-07-28T23:35:54.494Z,63.39
2018-07-28T23:38:22.186Z,63.28
2018-07-28T23:40:49.834Z,62.97
2018-07-28T23:43:17.542Z,63.46
2018-07-28T23:45:45.213Z,63.29
2018-07-28T23:48:12.843Z,63.01
2018-07-28T23:50:40.502Z,63.68
2018-07-28T23:53:08.234Z,64.22
2018-07-28T23:55:35.886Z,63.39
2018-07-28T23:58:03.549Z,63.57
